Time;durP1;ratioP1;P1;durP2;ratioP2;P2;SDS_P1;SDS_P2;PMS_P1;PMS_P2;Temp;Humidity;BMP_temperature;BMP_pressure;BME280_temperature;BME280_humidity;BME280_pressure;Samples;Min_cycle;Max_cycle;Signal;HPM_P1;HPM_P2
2021/08/11 00:00:42;;;;;;;5.72;3.02;;;;;;;16.68;78.50;99290.14;1688468;84;20943;-68
2021/08/11 00:03:08;;;;;;;13.22;3.17;;;;;;;16.62;78.59;99287.39;1688346;85;21006;-68
2021/08/11 00:05:35;;;;;;;6.00;3.33;;;;;;;16.57;79.04;99291.84;1688783;85;20864;-69
2021/08/11 00:08:01;;;;;;;3.75;3.10;;;;;;;16.53;79.21;99285.41;1688552;85;21897;-69
2021/08/11 00:10:29;;;;;;;6.80;3.80;;;;;;;16.49;79.54;99291.67;1688244;84;21556;-70
2021/08/11 00:12:56;;;;;;;5.00;3.30;;;;;;;16.46;79.75;99286.05;1688348;85;20951;-70
2021/08/11 00:15:23;;;;;;;4.25;3.40;;;;;;;16.37;80.03;99289.02;1686138;85;20892;-70
2021/08/11 00:17:49;;;;;;;4.30;3.08;;;;;;;16.30;80.39;99282.50;1683087;85;21036;-69
2021/08/11 00:20:16;;;;;;;4.67;3.20;;;;;;;16.23;80.75;99284.52;1727999;83;21970;-69
2021/08/11 00:22:43;;;;;;;6.42;3.08;;;;;;;16.18;81.14;99283.41;1713712;82;20883;-69
2021/08/11 00:25:11;;;;;;;6.83;3.10;;;;;;;16.10;81.37;99288.00;1713411;83;20978;-69
2021/08/11 00:27:37;;;;;;;7.72;3.50;;;;;;;16.04;81.84;99289.44;1713637;83;21488;-69
2021/08/11 00:30:07;;;;;;;6.20;3.80;;;;;;;16.00;82.25;99296.05;1713366;83;21386;-69
2021/08/11 00:32:34;;;;;;;5.17;3.35;;;;;;;15.95;82.46;99285.24;1713730;83;21756;-69
2021/08/11 00:35:02;;;;;;;12.30;4.17;;;;;;;15.93;82.82;99287.56;1713333;83;21561;-69
2021/08/11 00:37:28;;;;;;;10.05;3.80;;;;;;;15.92;83.06;99281.22;1713490;83;21034;-69
2021/08/11 00:39:58;;;;;;;6.40;4.00;;;;;;;15.92;83.08;99273.50;1713322;83;21119;-69
2021/08/11 00:42:24;;;;;;;9.83;4.12;;;;;;;15.91;83.03;99271.89;1713369;83;20933;-69
2021/08/11 00:44:50;;;;;;;4.75;3.83;;;;;;;15.85;83.09;99268.59;1713426;83;21038;-69
2021/08/11 00:47:17;;;;;;;10.43;4.03;;;;;;;15.80;83.46;99266.09;1713577;83;21036;-69
2021/08/11 00:49:45;;;;;;;8.40;4.35;;;;;;;15.75;83.63;99267.16;1697432;83;21049;-69
2021/08/11 00:52:13;;;;;;;12.23;4.00;;;;;;;15.71;84.12;99256.58;1713555;83;21429;-69
2021/08/11 00:54:41;;;;;;;5.20;4.00;;;;;;;15.73;84.46;99257.02;1713761;83;20906;-69
2021/08/11 00:57:09;;;;;;;11.73;4.08;;;;;;;15.74;84.60;99251.71;1713344;83;21129;-69
2021/08/11 00:59:37;;;;;;;6.70;4.42;;;;;;;15.73;84.78;99251.49;1697203;83;20922;-69
2021/08/11 01:02:04;;;;;;;4.40;3.83;;;;;;;15.70;84.83;99247.25;1713401;83;20851;-69
2021/08/11 01:04:32;;;;;;;6.92;4.58;;;;;;;15.63;84.95;99243.72;1713705;83;20962;-69
2021/08/11 01:07:03;;;;;;;7.33;3.95;;;;;;;15.57;85.17;99250.70;1696622;83;20982;-69
2021/08/11 01:09:31;;;;;;;8.13;4.10;;;;;;;15.50;85.46;99252.67;1713291;83;21118;-69
2021/08/11 01:11:58;;;;;;;4.05;3.58;;;;;;;15.49;85.83;99253.03;1713292;83;21021;-69
2021/08/11 01:14:26;;;;;;;5.67;3.70;;;;;;;15.49;86.02;99255.22;1713396;83;20935;-69
2021/08/11 01:16:55;;;;;;;9.35;4.12;;;;;;;15.49;86.30;99256.60;1713381;83;20938;-69
2021/08/11 01:19:22;;;;;;;4.62;3.80;;;;;;;15.49;86.57;99256.60;1713476;83;20906;-69
2021/08/11 01:22:06;;;;;;;4.58;3.55;;;;;;;15.52;86.82;99253.70;1713246;83;20886;-69
2021/08/11 01:24:52;;;;;;;9.35;3.72;;;;;;;15.53;86.81;99246.44;1713580;83;20890;-69
2021/08/11 01:27:57;;;;;;;6.15;3.83;;;;;;;15.58;86.88;99241.83;1712968;82;21541;-69
2021/08/11 01:30:51;;;;;;;12.05;4.05;;;;;;;15.58;86.92;99241.25;1679019;83;20957;-69
2021/08/11 01:33:46;;;;;;;8.90;4.65;;;;;;;15.56;86.97;99236.62;1713388;83;20934;-69
2021/08/11 01:36:38;;;;;;;4.72;3.70;;;;;;;15.57;86.93;99240.22;1713476;83;21157;-69
2021/08/11 01:39:10;;;;;;;4.85;4.00;;;;;;;15.51;87.06;99239.07;1712749;83;21006;-69
2021/08/11 01:41:42;;;;;;;5.03;4.08;;;;;;;15.51;87.20;99243.80;1713286;83;20966;-69
2021/08/11 01:44:09;;;;;;;11.12;4.28;;;;;;;15.51;87.22;99248.75;1713347;83;20980;-68
2021/08/11 01:46:41;;;;;;;10.05;4.45;;;;;;;15.50;87.24;99249.11;1713459;83;21528;-68
2021/08/11 01:49:09;;;;;;;8.55;4.42;;;;;;;15.48;87.42;99254.19;1713616;83;21064;-69
2021/08/11 01:51:38;;;;;;;7.58;4.37;;;;;;;15.45;87.33;99250.75;1713444;83;20995;-68
2021/08/11 01:54:07;;;;;;;7.85;4.45;;;;;;;15.42;87.31;99257.80;1713373;83;21437;-68
2021/08/11 01:56:34;;;;;;;7.25;4.30;;;;;;;15.40;87.40;99263.45;1713382;83;20931;-69
2021/08/11 01:59:02;;;;;;;8.98;5.05;;;;;;;15.37;87.68;99258.63;1713366;83;21417;-69
2021/08/11 02:01:30;;;;;;;6.10;4.03;;;;;;;15.34;87.86;99258.77;1713436;83;21784;-68
2021/08/11 02:03:56;;;;;;;5.10;4.20;;;;;;;15.35;87.80;99261.75;1713731;83;21564;-69
2021/08/11 02:06:27;;;;;;;8.00;4.25;;;;;;;15.33;87.87;99259.92;1697356;83;21422;-68
2021/08/11 02:08:56;;;;;;;;;;;;;;;15.31;87.93;99259.47;1715904;83;20934;-68
2021/08/11 02:11:22;;;;;;;11.28;4.90;;;;;;;15.31;87.97;99265.58;1713375;83;20115;-69
2021/08/11 02:13:49;;;;;;;6.47;4.55;;;;;;;15.26;87.97;99269.41;1713479;83;21050;-69
2021/08/11 02:16:19;;;;;;;10.55;4.40;;;;;;;15.23;88.01;99272.07;1713436;83;21560;-69
2021/08/11 02:18:46;;;;;;;11.30;4.35;;;;;;;15.17;88.08;99264.61;1713360;83;20963;-69
2021/08/11 02:21:14;;;;;;;6.28;4.25;;;;;;;15.08;88.21;99259.23;1713252;83;20915;-68
2021/08/11 02:23:42;;;;;;;7.67;4.30;;;;;;;15.06;88.44;99263.50;1713435;83;20991;-68
2021/08/11 02:26:31;;;;;;;8.15;4.10;;;;;;;15.00;88.55;99264.36;1713290;83;21054;-68
2021/08/11 02:29:41;;;;;;;6.28;3.98;;;;;;;14.96;88.55;99270.37;1713269;83;20962;-68
2021/08/11 02:32:16;;;;;;;6.95;4.30;;;;;;;14.91;88.84;99266.47;1713639;83;21528;-69
2021/08/11 02:35:16;;;;;;;8.30;4.47;;;;;;;14.86;88.98;99263.38;1713453;83;20903;-69
2021/08/11 02:38:16;;;;;;;7.15;3.98;;;;;;;14.80;89.16;99263.98;1713552;83;21421;-69
2021/08/11 02:41:11;;;;;;;7.05;4.08;;;;;;;14.72;89.55;99262.96;1691923;83;23344;-69
2021/08/11 02:43:52;;;;;;;5.05;3.92;;;;;;;14.66;89.68;99271.27;1713438;83;21569;-68
2021/08/11 02:46:22;;;;;;;;;;;;;;;14.59;89.99;99266.91;1715542;83;21473;-70
2021/08/11 02:48:57;;;;;;;5.80;4.95;;;;;;;14.56;90.85;99270.37;1713377;83;20118;-69
2021/08/11 02:51:33;;;;;;;8.15;4.67;;;;;;;14.57;91.35;99272.55;1713443;83;21418;-69
2021/08/11 02:54:07;;;;;;;8.88;4.87;;;;;;;14.59;91.50;99268.87;1713530;83;21398;-69
2021/08/11 02:56:33;;;;;;;7.08;4.50;;;;;;;14.59;91.68;99274.39;1713423;83;21459;-70
2021/08/11 02:59:02;;;;;;;7.22;4.92;;;;;;;14.58;91.61;99271.40;1700963;82;20896;-69
2021/08/11 03:01:31;;;;;;;8.88;4.50;;;;;;;14.57;91.84;99280.84;1707818;82;21003;-69
2021/08/11 03:03:59;;;;;;;15.50;5.15;;;;;;;14.54;92.06;99282.34;1713325;83;20942;-69
2021/08/11 03:06:26;;;;;;;6.92;5.22;;;;;;;14.56;92.38;99279.23;1713365;83;21130;-69
2021/08/11 03:08:55;;;;;;;6.37;4.90;;;;;;;14.60;92.53;99285.67;1702003;83;20924;-69
2021/08/11 03:11:22;;;;;;;8.58;4.80;;;;;;;14.62;92.54;99281.98;1680094;83;20903;-69
2021/08/11 03:13:49;;;;;;;7.58;5.20;;;;;;;14.64;92.73;99284.63;1713765;83;20993;-69
2021/08/11 03:16:16;;;;;;;12.03;5.70;;;;;;;14.65;92.69;99282.66;1713460;83;20890;-69
2021/08/11 03:18:43;;;;;;;11.33;6.08;;;;;;;14.66;93.00;99284.28;1697479;83;21099;-68
2021/08/11 03:21:10;;;;;;;8.18;5.85;;;;;;;14.70;93.24;99281.84;1713389;83;21005;-69
2021/08/11 03:23:36;;;;;;;11.25;6.50;;;;;;;14.75;93.34;99276.08;1699181;83;20894;-69
2021/08/11 03:26:04;;;;;;;19.67;6.12;;;;;;;14.80;93.54;99284.70;1727839;83;20946;-69
2021/08/11 03:28:31;;;;;;;12.23;6.00;;;;;;;14.84;93.33;99282.84;1728161;83;21524;-70
2021/08/11 03:30:58;;;;;;;16.27;6.70;;;;;;;14.87;93.41;99283.53;1711691;81;21138;-70
2021/08/11 03:33:26;;;;;;;12.58;5.90;;;;;;;14.91;93.40;99278.91;1705812;83;20863;-69
2021/08/11 03:35:52;;;;;;;9.55;6.40;;;;;;;14.96;93.32;99280.62;1688448;85;20915;-69
2021/08/11 03:38:19;;;;;;;13.22;5.33;;;;;;;14.99;93.18;99283.48;1689203;81;21035;-69
2021/08/11 03:40:49;;;;;;;11.25;6.37;;;;;;;15.04;93.03;99282.41;1709315;82;20882;-69
2021/08/11 03:43:16;;;;;;;11.03;6.20;;;;;;;15.08;93.09;99277.20;1727869;83;21126;-70
2021/08/11 03:45:44;;;;;;;13.48;6.90;;;;;;;15.13;92.92;99278.33;1727750;83;20890;-69
2021/08/11 03:48:12;;;;;;;8.55;5.83;;;;;;;15.18;92.84;99280.84;1727740;83;21064;-69
2021/08/11 03:50:41;;;;;;;8.75;5.85;;;;;;;15.24;92.73;99281.40;1727741;83;20961;-70
2021/08/11 03:53:11;;;;;;;14.43;6.05;;;;;;;15.26;92.67;99279.08;1727775;82;20996;-69
2021/08/11 03:55:38;;;;;;;9.88;5.92;;;;;;;15.30;92.72;99279.19;1727814;83;21987;-69
2021/08/11 03:58:04;;;;;;;8.83;5.72;;;;;;;15.33;92.77;99276.52;1727716;83;20995;-71
2021/08/11 04:00:33;;;;;;;9.50;6.20;;;;;;;15.39;92.59;99290.31;1715978;81;20999;-70
2021/08/11 04:02:59;;;;;;;13.45;5.67;;;;;;;15.45;92.47;99291.66;1703923;83;20947;-70
2021/08/11 04:05:26;;;;;;;11.48;5.70;;;;;;;15.52;92.26;99297.39;1688368;85;20927;-70
2021/08/11 04:07:54;;;;;;;10.53;5.65;;;;;;;15.60;92.14;99297.61;1688625;85;21114;-70
2021/08/11 04:10:21;;;;;;;7.15;6.22;;;;;;;15.66;92.36;99296.97;1699704;81;20987;-72
2021/08/11 04:12:48;;;;;;;12.93;6.00;;;;;;;15.74;92.18;99303.48;1725333;83;20974;-69
2021/08/11 04:15:15;;;;;;;9.08;5.53;;;;;;;15.81;91.93;99303.67;1727850;83;20933;-69
2021/08/11 04:17:41;;;;;;;7.20;5.53;;;;;;;15.89;91.85;99296.36;1727975;83;20931;-69
2021/08/11 04:20:09;;;;;;;7.83;5.42;;;;;;;15.98;91.75;99303.91;1729130;83;21191;-69
2021/08/11 04:22:36;;;;;;;8.18;5.08;;;;;;;16.06;91.95;99302.92;1706427;81;20874;-68
2021/08/11 04:25:04;;;;;;;7.12;5.12;;;;;;;16.14;91.19;99293.05;1710558;83;20909;-70
2021/08/11 04:27:30;;;;;;;7.28;5.08;;;;;;;16.25;91.05;99299.40;1719444;82;20881;-69
2021/08/11 04:29:57;;;;;;;6.53;4.90;;;;;;;16.32;90.47;99296.22;1723361;82;21472;-69
2021/08/11 04:32:24;;;;;;;6.62;5.15;;;;;;;16.41;90.66;99296.83;1723060;83;21146;-70
2021/08/11 04:34:50;;;;;;;7.95;5.85;;;;;;;16.51;90.16;99303.78;1723331;83;21452;-70
2021/08/11 04:37:16;;;;;;;6.08;4.97;;;;;;;16.59;89.82;99293.66;1723196;83;20870;-69
2021/08/11 04:39:42;;;;;;;10.05;5.45;;;;;;;16.66;89.32;99299.40;1723142;83;20981;-69
2021/08/11 04:42:09;;;;;;;10.93;5.70;;;;;;;16.73;89.17;99298.17;1723096;83;20964;-68
2021/08/11 04:44:35;;;;;;;11.33;5.70;;;;;;;16.83;89.38;99302.53;1723141;82;21137;-69
2021/08/11 04:47:03;;;;;;;10.03;5.30;;;;;;;16.96;89.17;99298.23;1723191;83;20873;-69
2021/08/11 04:49:29;;;;;;;5.95;5.28;;;;;;;17.06;88.43;99294.30;1723398;83;20964;-69
2021/08/11 04:51:55;;;;;;;9.55;5.30;;;;;;;17.14;87.46;99293.87;1723078;83;22241;-69
2021/08/11 04:54:21;;;;;;;9.90;5.22;;;;;;;17.23;87.17;99293.64;1723511;83;21471;-69
2021/08/11 04:56:47;;;;;;;7.03;5.15;;;;;;;17.32;86.87;99297.80;1723202;83;21203;-69
2021/08/11 04:59:14;;;;;;;11.57;6.08;;;;;;;17.42;86.42;99297.17;1722923;83;20927;-69
2021/08/11 05:01:40;;;;;;;9.23;6.12;;;;;;;17.52;86.33;99295.77;1723172;83;20985;-69
2021/08/11 05:04:07;;;;;;;14.80;6.28;;;;;;;17.64;86.13;99294.22;1712344;83;20873;-69
2021/08/11 05:06:33;;;;;;;21.35;7.05;;;;;;;17.76;85.56;99298.82;1712767;83;20969;-69
2021/08/11 05:08:59;;;;;;;13.75;6.10;;;;;;;17.88;85.25;99295.06;1699077;83;21119;-69
2021/08/11 05:11:26;;;;;;;12.13;6.85;;;;;;;17.98;84.53;99291.64;1684258;84;21440;-69
2021/08/11 05:13:52;;;;;;;11.10;7.45;;;;;;;18.07;83.83;99287.44;1683938;85;20913;-68
2021/08/11 05:16:18;;;;;;;12.78;7.78;;;;;;;18.15;84.57;99288.36;1684077;85;20952;-69
2021/08/11 05:18:44;;;;;;;11.45;7.90;;;;;;;18.26;83.98;99285.16;1684371;85;20901;-68
2021/08/11 05:21:11;;;;;;;12.25;7.80;;;;;;;18.36;83.58;99282.33;1684086;85;21104;-69
2021/08/11 05:23:37;;;;;;;16.90;7.20;;;;;;;18.45;83.77;99276.72;1688766;85;21045;-69
2021/08/11 05:26:03;;;;;;;15.93;6.78;;;;;;;18.59;83.51;99278.88;1691036;85;21517;-69
2021/08/11 05:28:30;;;;;;;10.78;6.45;;;;;;;18.72;83.20;99275.31;1673138;85;20998;-70
2021/08/11 05:30:58;;;;;;;15.75;6.60;;;;;;;18.87;83.00;99265.19;1690976;84;21441;-69
2021/08/11 05:33:24;;;;;;;11.95;6.97;;;;;;;19.00;82.45;99261.78;1690925;85;21445;-70
2021/08/11 05:35:50;;;;;;;25.30;6.67;;;;;;;19.13;81.16;99260.32;1691211;84;20930;-69
2021/08/11 05:38:17;;;;;;;9.23;5.40;;;;;;;19.27;80.53;99254.13;1690900;85;20946;-69
2021/08/11 05:40:43;;;;;;;11.20;5.50;;;;;;;19.40;79.27;99257.44;1690978;84;20947;-68
2021/08/11 05:43:09;;;;;;;9.20;4.30;;;;;;;19.51;79.30;99265.91;1691043;84;20951;-68
2021/08/11 05:45:35;;;;;;;8.95;4.20;;;;;;;19.61;77.45;99255.50;1691321;84;21105;-68
2021/08/11 05:48:02;;;;;;;13.70;4.30;;;;;;;19.71;76.63;99250.59;1705146;83;20882;-69
2021/08/11 05:50:28;;;;;;;6.30;3.75;;;;;;;19.85;77.53;99249.92;1691622;83;20946;-68
2021/08/11 05:52:54;;;;;;;4.67;3.60;;;;;;;19.99;76.42;99246.66;1690990;85;20962;-68
2021/08/11 05:55:21;;;;;;;10.20;4.55;;;;;;;20.13;75.92;99236.82;1691002;85;20899;-68
2021/08/11 05:57:47;;;;;;;7.90;3.70;;;;;;;20.24;76.17;99231.50;1691318;84;21122;-70
2021/08/11 06:00:16;;;;;;;7.62;3.60;;;;;;;20.38;75.26;99239.98;1690901;85;20979;-69
2021/08/11 06:02:43;;;;;;;35.85;5.53;;;;;;;20.50;74.36;99236.67;1691241;84;20934;-69
2021/08/11 06:05:11;;;;;;;12.45;4.15;;;;;;;20.60;74.30;99233.94;1690988;84;20943;-69
2021/08/11 06:07:39;;;;;;;8.18;3.83;;;;;;;20.73;74.67;99229.63;1690875;85;20990;-70
2021/08/11 06:10:08;;;;;;;10.25;3.52;;;;;;;20.88;73.96;99230.47;1690977;84;21041;-69
2021/08/11 06:12:35;;;;;;;15.38;5.22;;;;;;;21.04;73.98;99233.72;1691232;84;20967;-68
2021/08/11 06:15:01;;;;;;;4.08;3.02;;;;;;;21.21;73.28;99225.80;1690891;84;21529;-68
2021/08/11 06:17:28;;;;;;;5.17;3.47;;;;;;;21.35;72.52;99232.25;1691295;85;20958;-68
2021/08/11 06:19:54;;;;;;;10.88;4.37;;;;;;;21.48;70.61;99238.23;1690895;85;20899;-68
2021/08/11 06:22:22;;;;;;;8.03;3.72;;;;;;;21.57;69.48;99241.44;1690654;84;21077;-68
2021/08/11 06:24:49;;;;;;;8.33;3.55;;;;;;;21.65;69.84;99237.46;1684062;85;20960;-68
2021/08/11 06:27:15;;;;;;;8.15;3.42;;;;;;;21.74;67.59;99235.08;1684067;85;20940;-68
2021/08/11 06:29:41;;;;;;;7.70;3.80;;;;;;;21.85;69.75;99232.29;1681518;85;21544;-68
2021/08/11 06:32:08;;;;;;;8.03;4.25;;;;;;;22.00;68.76;99229.66;1683998;85;21048;-68
2021/08/11 06:34:34;;;;;;;23.45;4.70;;;;;;;22.13;68.93;99230.69;1684039;84;21137;-68
2021/08/11 06:37:01;;;;;;;11.22;3.77;;;;;;;22.27;69.32;99229.28;1683841;84;21691;-68
2021/08/11 06:39:28;;;;;;;7.78;3.02;;;;;;;22.42;68.03;99218.86;1684001;85;21084;-68
2021/08/11 06:41:54;;;;;;;2.90;2.58;;;;;;;22.56;67.36;99219.59;1684089;85;20933;-68
2021/08/11 06:44:23;;;;;;;4.03;2.85;;;;;;;22.69;66.93;99220.76;1684076;85;21496;-68
2021/08/11 06:46:50;;;;;;;7.08;3.02;;;;;;;22.80;65.10;99211.56;1690744;83;21102;-68
2021/08/11 06:49:17;;;;;;;4.50;2.70;;;;;;;22.88;64.58;99206.93;1715351;83;20962;-68
2021/08/11 06:51:44;;;;;;;3.87;2.55;;;;;;;22.96;63.29;99202.89;1723243;83;20917;-68
2021/08/11 06:54:12;;;;;;;4.83;2.40;;;;;;;23.00;63.22;99213.47;1697974;83;21531;-68
2021/08/11 06:56:40;;;;;;;5.70;2.22;;;;;;;23.08;62.60;99212.04;1684106;85;21475;-69
2021/08/11 06:59:06;;;;;;;10.28;2.42;;;;;;;23.16;62.49;99223.37;1687511;83;21791;-69
2021/08/11 07:01:33;;;;;;;11.00;3.10;;;;;;;23.21;61.42;99215.34;1723199;83;20886;-69
2021/08/11 07:03:59;;;;;;;7.03;3.02;;;;;;;23.31;60.16;99215.87;1723275;83;21041;-69
2021/08/11 07:06:26;;;;;;;7.33;2.40;;;;;;;23.37;60.43;99214.24;1693552;83;20905;-68
2021/08/11 07:08:52;;;;;;;22.10;3.70;;;;;;;23.46;58.65;99210.19;1684345;85;20877;-69
2021/08/11 07:11:19;;;;;;;12.25;3.02;;;;;;;23.52;58.22;99208.55;1684529;85;21038;-69
2021/08/11 07:13:45;;;;;;;2.55;2.15;;;;;;;23.58;60.38;99210.54;1684016;84;21496;-69
2021/08/11 07:16:12;;;;;;;4.50;1.90;;;;;;;23.76;59.18;99210.98;1681669;84;21049;-69
2021/08/11 07:18:38;;;;;;;2.75;2.47;;;;;;;23.92;59.96;99212.66;1684329;85;21040;-69
2021/08/11 07:21:05;;;;;;;2.65;2.08;;;;;;;24.06;56.85;99206.92;1684137;85;20905;-69
2021/08/11 07:23:31;;;;;;;5.25;1.87;;;;;;;24.15;56.52;99211.45;1686839;85;21147;-69
2021/08/11 07:25:58;;;;;;;2.65;1.82;;;;;;;24.22;55.63;99213.38;1711927;83;21628;-69
2021/08/11 07:28:25;;;;;;;7.87;2.10;;;;;;;24.28;55.16;99211.72;1719772;83;21445;-69
2021/08/11 07:30:51;;;;;;;5.40;2.05;;;;;;;24.34;54.74;99209.45;1699933;82;21001;-68
2021/08/11 07:33:19;;;;;;;3.80;2.33;;;;;;;24.44;54.48;99203.55;1724622;83;21057;-69
2021/08/11 07:35:46;;;;;;;5.92;2.00;;;;;;;24.55;54.48;99206.23;1724477;83;21134;-69
2021/08/11 07:38:12;;;;;;;4.17;1.82;;;;;;;24.65;52.92;99206.72;1725051;83;20934;-69
2021/08/11 07:40:41;;;;;;;4.83;1.98;;;;;;;24.72;51.68;99201.02;1725234;83;20926;-69
2021/08/11 07:43:07;;;;;;;2.15;1.92;;;;;;;24.82;52.04;99204.31;1725623;83;21005;-69
2021/08/11 07:45:35;;;;;;;6.35;2.08;;;;;;;24.88;52.03;99200.41;1725299;83;20886;-69
2021/08/11 07:48:03;;;;;;;2.92;2.25;;;;;;;24.98;52.60;99203.71;1725512;83;23304;-69
2021/08/11 07:50:32;;;;;;;6.50;1.87;;;;;;;25.13;51.24;99205.73;1707198;83;20882;-69
2021/08/11 07:52:59;;;;;;;4.65;2.05;;;;;;;25.26;51.69;99202.53;1702444;81;20895;-69
2021/08/11 07:55:26;;;;;;;3.10;2.12;;;;;;;25.41;51.05;99206.73;1696613;84;20942;-69
2021/08/11 07:57:53;;;;;;;8.13;2.50;;;;;;;25.53;51.35;99203.31;1696784;84;21428;-69
2021/08/11 08:00:20;;;;;;;4.70;2.12;;;;;;;25.74;51.89;99207.05;1696513;84;23315;-69
2021/08/11 08:02:47;;;;;;;7.75;2.10;;;;;;;26.04;48.70;99204.09;1697005;84;20938;-69
2021/08/11 08:05:14;;;;;;;10.50;2.55;;;;;;;26.36;50.07;99210.59;1696528;84;20886;-69
2021/08/11 08:07:40;;;;;;;9.85;2.65;;;;;;;26.77;48.79;99205.95;1696478;84;20946;-71
2021/08/11 08:10:09;;;;;;;6.42;1.82;;;;;;;27.19;47.60;99202.84;1696745;84;20878;-70
2021/08/11 08:12:35;;;;;;;4.25;2.12;;;;;;;27.51;43.40;99202.13;1716877;83;21175;-68
2021/08/11 08:15:02;;;;;;;2.80;2.05;;;;;;;27.67;41.61;99204.81;1725572;83;21580;-68
2021/08/11 08:17:29;;;;;;;8.63;2.40;;;;;;;27.82;42.39;99204.00;1725488;83;21560;-69
2021/08/11 08:19:55;;;;;;;6.12;2.00;;;;;;;28.05;42.34;99197.38;1721542;81;21529;-69
2021/08/11 08:22:21;;;;;;;4.15;1.80;;;;;;;28.32;41.37;99205.55;1697890;83;20966;-67
2021/08/11 08:24:54;;;;;;;2.92;1.98;;;;;;;28.51;40.30;99207.44;1709041;83;21559;-69
2021/08/11 08:27:16;;;;;;;2.70;1.57;;;;;;;28.65;41.07;99207.67;1697169;82;20835;-70
2021/08/11 08:29:43;;;;;;;1.77;1.60;;;;;;;28.78;38.61;99204.27;1677519;84;20987;-70
2021/08/11 08:32:11;;;;;;;3.40;2.00;;;;;;;28.87;38.45;99200.20;1654008;86;22233;-67
2021/08/11 08:34:38;;;;;;;4.22;1.62;;;;;;;28.97;37.89;99201.72;1654429;85;21619;-70
2021/08/11 08:37:05;;;;;;;3.00;1.67;;;;;;;29.09;37.12;99191.06;1653858;86;21069;-66
2021/08/11 08:39:31;;;;;;;2.00;1.52;;;;;;;29.13;37.20;99200.23;1653616;86;21681;-67
2021/08/11 08:41:58;;;;;;;3.20;1.70;;;;;;;29.19;36.44;99192.78;1653793;86;21025;-67
2021/08/11 08:44:24;;;;;;;3.65;1.70;;;;;;;29.24;36.09;99199.28;1653739;86;22164;-66
2021/08/11 08:46:52;;;;;;;10.05;3.08;;;;;;;29.35;35.50;99185.61;1653840;86;21009;-65
2021/08/11 08:49:19;;;;;;;4.87;1.50;;;;;;;29.53;37.40;99187.26;1653715;86;21150;-66
2021/08/11 08:51:50;;;;;;;2.83;1.90;;;;;;;29.68;34.19;99179.73;1653723;86;20957;-67
2021/08/11 08:54:25;;;;;;;18.95;5.72;;;;;;;29.61;36.57;99177.92;1653668;85;20925;-65
2021/08/11 08:56:51;;;;;;;10.95;3.62;;;;;;;29.67;36.34;99177.52;1679440;82;21069;-67
2021/08/11 08:59:18;;;;;;;8.35;2.90;;;;;;;29.94;37.43;99169.16;1655875;84;21119;-67
2021/08/11 09:01:44;;;;;;;5.87;1.80;;;;;;;30.19;35.84;99174.77;1652314;86;21543;-70
2021/08/11 09:04:10;;;;;;;21.77;2.95;;;;;;;30.35;36.20;99179.47;1652926;86;21009;-67
2021/08/11 09:06:37;;;;;;;3.27;1.80;;;;;;;30.59;34.17;99177.02;1653110;86;21009;-69
2021/08/11 09:09:10;;;;;;;2.45;1.70;;;;;;;30.73;33.03;99179.30;1653274;85;21064;-69
2021/08/11 09:11:42;;;;;;;9.28;2.00;;;;;;;30.73;32.73;99185.75;1653169;85;21065;-70
2021/08/11 09:14:28;;;;;;;3.42;1.62;;;;;;;30.71;32.66;99174.72;1686853;84;21126;-67
2021/08/11 09:16:57;;;;;;;1.92;1.60;;;;;;;30.84;33.80;99179.06;1704761;83;20974;-68
2021/08/11 09:19:25;;;;;;;2.08;1.45;;;;;;;31.00;31.59;99180.90;1705974;84;20977;-68
2021/08/11 09:22:01;;;;;;;4.40;1.60;;;;;;;31.02;31.58;99176.19;1689525;84;20998;-66
2021/08/11 09:24:28;;;;;;;2.15;1.67;;;;;;;31.07;31.23;99180.63;1720178;82;21051;-68
2021/08/11 09:26:55;;;;;;;3.20;1.77;;;;;;;31.26;31.72;99180.73;1691566;83;21123;-68
2021/08/11 09:29:22;;;;;;;1.60;1.50;;;;;;;31.36;31.40;99170.37;1695805;83;21519;-68
2021/08/11 09:31:48;;;;;;;5.17;1.47;;;;;;;31.46;31.99;99172.00;1706144;83;21527;-69
2021/08/11 09:34:15;;;;;;;1.45;1.35;;;;;;;31.61;30.05;99168.59;1683309;85;21056;-69
2021/08/11 09:36:49;;;;;;;2.80;1.62;;;;;;;31.68;30.99;99174.00;1683511;85;21080;-68
2021/08/11 09:39:17;;;;;;;3.00;2.27;;;;;;;31.72;31.21;99165.50;1711868;83;21063;-69
2021/08/11 09:42:02;;;;;;;3.55;1.62;;;;;;;31.97;31.20;99168.69;1721305;83;20983;-70
2021/08/11 09:44:28;;;;;;;7.17;2.12;;;;;;;32.09;30.09;99174.86;1696744;83;21034;-70
2021/08/11 09:47:11;;;;;;;4.72;2.15;;;;;;;32.11;30.30;99163.03;1721411;83;21038;-69
2021/08/11 09:49:38;;;;;;;2.22;1.65;;;;;;;32.13;30.50;99165.55;1721280;83;21038;-69
2021/08/11 09:52:05;;;;;;;4.37;1.62;;;;;;;32.22;30.84;99157.70;1718894;81;21778;-69
2021/08/11 09:54:32;;;;;;;1.62;1.42;;;;;;;32.33;29.92;99164.34;1710692;83;21676;-68
2021/08/11 09:56:59;;;;;;;4.62;1.92;;;;;;;32.35;30.09;99156.89;1703424;81;20959;-67
2021/08/11 09:59:25;;;;;;;6.62;2.20;;;;;;;32.27;30.67;99159.12;1693215;83;21009;-69
2021/08/11 10:01:52;;;;;;;1.60;1.40;;;;;;;32.30;29.67;99157.55;1683412;85;21499;-69
2021/08/11 10:04:19;;;;;;;3.33;1.65;;;;;;;32.38;30.54;99151.69;1689068;83;21122;-68
2021/08/11 10:06:46;;;;;;;2.75;2.00;;;;;;;32.45;28.77;99146.31;1701064;83;21516;-69
2021/08/11 10:09:25;;;;;;;14.25;4.10;;;;;;;32.43;29.86;99143.16;1684037;85;21484;-68
2021/08/11 10:11:53;;;;;;;7.53;3.10;;;;;;;32.45;30.04;99147.11;1687903;83;21008;-68
2021/08/11 10:14:24;;;;;;;7.72;2.33;;;;;;;32.44;29.20;99147.58;1697129;83;20981;-68
2021/08/11 10:16:52;;;;;;;2.75;1.60;;;;;;;32.51;28.25;99143.00;1723355;83;21114;-68
2021/08/11 10:19:22;;;;;;;6.75;2.33;;;;;;;32.46;27.24;99145.05;1722974;83;21017;-67
2021/08/11 10:21:53;;;;;;;4.30;1.87;;;;;;;32.28;28.90;99140.83;1722549;83;20965;-67
2021/08/11 10:24:22;;;;;;;4.65;1.60;;;;;;;32.19;29.44;99145.84;1717100;83;21529;-68
2021/08/11 10:26:51;;;;;;;3.98;1.52;;;;;;;32.28;28.96;99145.09;1705937;84;21500;-68
2021/08/11 10:29:16;;;;;;;6.80;2.05;;;;;;;32.45;29.54;99139.22;1706072;83;21103;-67
2021/08/11 10:31:43;;;;;;;3.90;1.57;;;;;;;32.58;29.43;99142.68;1705874;84;20954;-68
2021/08/11 10:34:16;;;;;;;2.40;1.40;;;;;;;32.60;28.04;99145.83;1705871;84;20938;-68
2021/08/11 10:36:44;;;;;;;2.02;1.40;;;;;;;32.48;29.38;99142.53;1706386;83;20878;-68
2021/08/11 10:39:11;;;;;;;1.67;1.40;;;;;;;32.56;29.43;99142.36;1706290;84;20914;-68
2021/08/11 10:41:39;;;;;;;1.60;1.50;;;;;;;32.68;27.39;99136.35;1706284;84;21067;-68
2021/08/11 10:44:06;;;;;;;3.45;1.75;;;;;;;32.69;28.83;99123.09;1691123;82;20862;-67
2021/08/11 10:46:43;;;;;;;4.45;1.77;;;;;;;32.75;29.73;99140.29;1689002;84;20930;-67
2021/08/11 10:49:16;;;;;;;5.05;1.65;;;;;;;32.71;28.99;99136.82;1696845;84;20986;-67
2021/08/11 10:51:44;;;;;;;10.75;2.30;;;;;;;32.65;29.30;99139.52;1705433;83;21477;-66
2021/08/11 10:54:11;;;;;;;3.05;1.77;;;;;;;32.67;29.23;99141.25;1678034;85;21095;-67
2021/08/11 10:56:47;;;;;;;3.58;1.80;;;;;;;32.60;29.41;99135.89;1677955;84;20952;-67
2021/08/11 10:59:29;;;;;;;7.28;2.35;;;;;;;32.61;30.68;99133.20;1691727;83;21045;-68
2021/08/11 11:01:56;;;;;;;7.00;1.65;;;;;;;32.78;29.25;99125.16;1705378;84;22124;-68
2021/08/11 11:04:41;;;;;;;2.00;1.50;;;;;;;32.87;30.65;99127.98;1703916;83;21037;-68
2021/08/11 11:07:16;;;;;;;3.67;1.62;;;;;;;33.00;29.71;99114.33;1689960;84;21132;-68
2021/08/11 11:09:48;;;;;;;4.12;1.92;;;;;;;32.98;30.21;99117.49;1704514;83;37372;-66
2021/08/11 11:12:23;;;;;;;3.37;1.80;;;;;;;32.92;30.75;99133.65;1693677;82;20972;-66
2021/08/11 11:15:00;;;;;;;2.37;1.67;;;;;;;32.94;28.45;99125.40;1696067;84;20986;-66
2021/08/11 11:17:28;;;;;;;5.35;1.67;;;;;;;32.75;29.89;99118.97;1705554;84;21437;-66
2021/08/11 11:20:09;;;;;;;4.15;2.30;;;;;;;32.68;29.89;99112.98;1705680;84;21122;-66
2021/08/11 11:22:42;;;;;;;5.45;1.82;;;;;;;32.84;30.50;99111.88;1704842;84;20958;-66
2021/08/11 11:25:10;;;;;;;3.77;2.20;;;;;;;33.03;31.44;99112.58;1705557;84;20989;-66
2021/08/11 11:27:53;;;;;;;3.05;1.70;;;;;;;33.12;29.28;99116.81;1705511;84;20890;-66
2021/08/11 11:30:31;;;;;;;4.37;1.70;;;;;;;33.01;31.79;99110.22;1706491;82;21409;-66
2021/08/11 11:33:24;;;;;;;3.90;2.00;;;;;;;33.04;31.28;99104.20;1697498;82;21074;-67
2021/08/11 11:36:20;;;;;;;3.08;2.15;;;;;;;33.18;31.19;99102.73;1694887;84;20953;-68
2021/08/11 11:39:09;;;;;;;2.17;1.98;;;;;;;33.30;30.57;99096.07;1702363;82;21539;-68
2021/08/11 11:41:35;;;;;;;15.70;2.50;;;;;;;33.40;29.39;99091.28;1686326;83;20994;-69